createdAt,value
2022-12-01T00:01:07.822Z,101824.75
2022-12-01T00:03:34.656Z,101830.34
2022-12-01T00:06:16.239Z,101828.50
2022-12-01T00:09:03.104Z,101835.13
2022-12-01T00:11:30.044Z,101838.22
2022-12-01T00:13:56.757Z,101843.41
2022-12-01T00:16:23.563Z,101840.66
2022-12-01T00:18:51.289Z,101849.75
2022-12-01T00:21:20.428Z,101853.34
2022-12-01T00:23:49.116Z,101847.22
2022-12-01T00:26:17.469Z,101852.13
2022-12-01T00:28:44.146Z,101857.56
2022-12-01T00:31:12.626Z,101845.41
2022-12-01T00:33:40.031Z,101853.06
2022-12-01T00:36:07.199Z,101851.97
2022-12-01T00:38:34.463Z,101857.38
2022-12-01T00:41:01.495Z,101866.69
2022-12-01T00:43:28.123Z,101853.13
2022-12-01T00:45:56.380Z,101848.94
2022-12-01T00:48:23.326Z,101856.09
2022-12-01T00:50:54.522Z,101850.59
2022-12-01T00:53:21.523Z,101852.53
2022-12-01T00:55:48.168Z,101870.19
2022-12-01T00:58:15.086Z,101858.31
2022-12-01T01:00:43.033Z,101867.13
2022-12-01T01:03:10.802Z,101860.19
2022-12-01T01:05:42.758Z,101878.38
2022-12-01T01:08:11.801Z,101878.94
2022-12-01T01:10:44.485Z,101883.03
2022-12-01T01:13:12.756Z,101885.19
2022-12-01T01:15:39.790Z,101892.31
2022-12-01T01:18:07.205Z,101892.84
2022-12-01T01:20:33.915Z,101887.84
2022-12-01T01:23:00.628Z,101887.22
2022-12-01T01:25:27.521Z,101883.34
2022-12-01T01:27:54.243Z,101885.81
2022-12-01T01:30:21.607Z,101888.28
2022-12-01T01:32:48.272Z,101893.19
2022-12-01T01:35:14.939Z,101896.78
2022-12-01T01:37:41.641Z,101902.81
2022-12-01T01:40:09.125Z,101904.75
2022-12-01T01:42:35.875Z,101905.25
2022-12-01T01:45:02.498Z,101903.63
2022-12-01T01:47:36.866Z,101897.78
2022-12-01T01:50:09.592Z,101904.13
2022-12-01T01:52:45.072Z,101908.53
2022-12-01T01:55:12.921Z,101900.78
2022-12-01T01:57:40.285Z,101907.13
2022-12-01T02:00:12.972Z,101901.59
2022-12-01T02:02:44.923Z,101901.28
2022-12-01T02:05:33.233Z,101895.44
2022-12-01T02:08:01.390Z,101899.34
2022-12-01T02:10:53.994Z,101893.81
2022-12-01T02:13:48.864Z,101896.59
2022-12-01T02:16:40.297Z,101886.66
2022-12-01T02:19:24.845Z,101889.72
2022-12-01T02:22:22.220Z,101880.13
2022-12-01T02:25:01.032Z,101891.97
2022-12-01T02:27:42.485Z,101890.84
2022-12-01T02:30:19.407Z,101878.69
2022-12-01T02:32:54.513Z,101891.34
2022-12-01T02:35:24.663Z,101894.66
2022-12-01T02:38:14.533Z,101900.97
2022-12-01T02:40:57.552Z,101901.78
2022-12-01T02:43:39.722Z,101909.78
2022-12-01T02:46:15.678Z,101907.53
2022-12-01T02:48:44.827Z,101907.53
2022-12-01T02:51:34.105Z,101905.28
2022-12-01T02:54:03.223Z,101901.19
2022-12-01T02:56:29.926Z,101912.72
2022-12-01T02:58:56.805Z,101909.97
2022-12-01T03:01:50.927Z,101911.63
2022-12-01T03:04:41.956Z,101913.88
2022-12-01T03:07:13.102Z,101906.72
2022-12-01T03:10:08.946Z,101915.50
2022-12-01T03:12:38.672Z,101912.22
2022-12-01T03:15:18.530Z,101915.31
2022-12-01T03:18:04.405Z,101918.34
2022-12-01T03:20:52.255Z,101917.84
2022-12-01T03:23:23.340Z,101908.75
2022-12-01T03:25:52.496Z,101903.22
2022-12-01T03:28:28.840Z,101911.81
2022-12-01T03:30:59.719Z,101914.06
2022-12-01T03:33:35.618Z,101921.81
2022-12-01T03:36:05.811Z,101913.84
2022-12-01T03:38:36.201Z,101914.94
2022-12-01T03:41:10.899Z,101916.09
2022-12-01T03:43:43.131Z,101909.75
2022-12-01T03:46:12.487Z,101919.13
2022-12-01T03:48:40.518Z,101914.75
2022-12-01T03:51:18.800Z,101922.22
2022-12-01T03:53:55.615Z,101916.69
2022-12-01T03:56:26.906Z,101915.03
2022-12-01T03:58:57.786Z,101929.66
2022-12-01T04:01:26.515Z,101921.38
2022-12-01T04:03:53.239Z,101925.56
2022-12-01T04:06:19.884Z,101932.75
2022-12-01T04:08:46.538Z,101927.50
2022-12-01T04:11:33.001Z,101931.91
2022-12-01T04:14:01.033Z,101932.19
2022-12-01T04:16:27.740Z,101928.63
2022-12-01T04:18:54.473Z,101921.16
2022-12-01T04:21:21.098Z,101931.38
2022-12-01T04:24:02.592Z,101930.59
2022-12-01T04:26:32.318Z,101930.28
2022-12-01T04:29:04.179Z,101922.00
2022-12-01T04:31:31.488Z,101922.81
2022-12-01T04:33:58.892Z,101937.44
2022-12-01T04:36:26.754Z,101927.50
2022-12-01T04:38:53.725Z,101921.16
2022-12-01T04:41:20.515Z,101918.13
2022-12-01T04:43:47.269Z,101924.16
2022-12-01T04:46:14.537Z,101921.91
2022-12-01T04:48:41.330Z,101922.41
2022-12-01T04:51:09.152Z,101927.66
2022-12-01T04:53:36.551Z,101920.97
2022-12-01T04:56:04.045Z,101909.16
2022-12-01T04:58:33.143Z,101919.38
2022-12-01T05:01:12.323Z,101915.78
2022-12-01T05:03:40.359Z,101919.13
2022-12-01T05:06:11.319Z,101915.34
2022-12-01T05:08:38.319Z,101914.53
2022-12-01T05:11:07.749Z,101919.53
2022-12-01T05:13:37.217Z,101914.31
2022-12-01T05:16:09.051Z,101917.38
2022-12-01T05:18:36.041Z,101918.50
2022-12-01T05:21:04.949Z,101913.28
2022-12-01T05:23:34.212Z,101916.34
2022-12-01T05:26:01.995Z,101922.16
2022-12-01T05:28:28.970Z,101921.13
2022-12-01T05:30:56.222Z,101931.34
2022-12-01T05:33:24.387Z,101922.25
2022-12-01T05:35:52.040Z,101922.50
2022-12-01T05:38:19.310Z,101924.75
2022-12-01T05:40:54.235Z,101918.22
2022-12-01T05:43:27.140Z,101915.75
2022-12-01T05:45:55.681Z,101916.34
2022-12-01T05:48:22.391Z,101923.28
2022-12-01T05:50:49.149Z,101910.06
2022-12-01T05:53:15.969Z,101915.41
2022-12-01T05:55:42.625Z,101922.03
2022-12-01T05:58:10.223Z,101917.09
2022-12-01T06:00:45.060Z,101916.59
2022-12-01T06:03:12.537Z,101923.00
2022-12-01T06:05:39.479Z,101913.41
2022-12-01T06:08:06.228Z,101914.00
2022-12-01T06:10:32.829Z,101919.59
2022-12-01T06:12:59.429Z,101926.19
2022-12-01T06:15:26.557Z,101930.09
2022-12-01T06:17:53.265Z,101933.97
2022-12-01T06:20:19.888Z,101941.72
2022-12-01T06:22:46.613Z,101935.66
2022-12-01T06:25:13.226Z,101946.16
2022-12-01T06:27:40.072Z,101948.41
2022-12-01T06:30:07.459Z,101955.94
2022-12-01T06:32:34.049Z,101954.66
2022-12-01T06:35:00.682Z,101955.81
2022-12-01T06:37:28.463Z,101946.28
2022-12-01T06:39:55.263Z,101956.78
2022-12-01T06:42:22.025Z,101964.28
2022-12-01T06:44:48.802Z,101961.03
2022-12-01T06:47:15.963Z,101962.44
2022-12-01T06:49:42.814Z,101952.53
2022-12-01T06:52:10.128Z,101957.72
2022-12-01T06:54:37.571Z,101965.13
2022-12-01T06:57:04.944Z,101959.03
2022-12-01T06:59:31.737Z,101971.09
2022-12-01T07:01:58.936Z,101964.16
2022-12-01T07:04:25.799Z,101965.22
2022-12-01T07:06:52.386Z,101970.75
2022-12-01T07:09:19.067Z,101970.75
2022-12-01T07:11:45.754Z,101972.09
2022-12-01T07:14:32.655Z,101963.22
2022-12-01T07:16:59.744Z,101965.69
2022-12-01T07:19:26.402Z,101966.19
2022-12-01T07:21:53.008Z,101959.28
2022-12-01T07:24:19.645Z,101959.59
2022-12-01T07:26:46.230Z,101966.72
2022-12-01T07:29:12.925Z,101960.09
2022-12-01T07:31:39.616Z,101967.25
2022-12-01T07:34:06.720Z,101962.25
2022-12-01T07:36:33.414Z,101954.28
2022-12-01T07:39:04.081Z,101961.16
2022-12-01T07:41:30.682Z,101960.34
2022-12-01T07:43:58.328Z,101966.13
2022-12-01T07:46:27.071Z,101957.84
2022-12-01T07:48:55.587Z,101962.25
2022-12-01T07:51:24.795Z,101960.34
2022-12-01T07:53:53.030Z,101956.75
2022-12-01T07:56:20.446Z,101965.09
2022-12-01T07:58:47.452Z,101964.56
2022-12-01T08:01:17.298Z,101972.28
2022-12-01T08:03:44.202Z,101972.03
2022-12-01T08:06:11.867Z,101972.84
2022-12-01T08:08:40.720Z,101976.69
2022-12-01T08:11:20.465Z,101982.72
2022-12-01T08:13:47.477Z,101987.97
2022-12-01T08:16:16.490Z,101989.31
2022-12-01T08:18:44.180Z,101996.75
2022-12-01T08:21:16.092Z,101995.34
2022-12-01T08:23:43.614Z,101994.25
2022-12-01T08:26:19.051Z,102000.25
2022-12-01T08:28:46.618Z,101993.63
2022-12-01T08:31:16.615Z,101988.66
2022-12-01T08:33:43.362Z,102004.56
2022-12-01T08:36:10.216Z,102002.66
2022-12-01T08:38:37.050Z,102004.00
2022-12-01T08:41:09.901Z,102000.94
2022-12-01T08:46:28.941Z,101993.72
2022-12-01T08:48:57.529Z,101995.06
2022-12-01T08:51:25.032Z,101989.78
2022-12-01T08:53:52.234Z,101994.69
2022-12-01T08:56:25.181Z,101997.66
2022-12-01T08:58:51.984Z,101999.03
2022-12-01T09:01:19.541Z,101998.13
2022-12-01T09:03:47.159Z,102001.41
2022-12-01T09:06:16.582Z,102003.56
2022-12-01T09:08:44.055Z,101993.56
2022-12-01T09:11:15.631Z,101997.38
2022-12-01T09:13:44.050Z,102002.00
2022-12-01T09:16:12.914Z,101995.59
2022-12-01T09:18:40.419Z,101992.81
2022-12-01T09:21:18.138Z,101994.94
2022-12-01T09:23:45.114Z,101994.84
2022-12-01T09:26:13.980Z,102001.09
2022-12-01T09:28:40.890Z,101989.47
2022-12-01T09:31:10.400Z,101995.72
2022-12-01T09:33:37.819Z,101998.41
2022-12-01T09:36:06.507Z,101998.31
2022-12-01T09:38:35.015Z,102001.00
2022-12-01T09:41:05.836Z,101997.34
2022-12-01T09:43:59.096Z,102004.72
2022-12-01T09:46:32.411Z,102016.78
2022-12-01T09:49:02.857Z,102017.81
2022-12-01T09:51:31.116Z,102018.84
2022-12-01T09:54:00.678Z,102020.41
2022-12-01T09:56:30.478Z,102028.09
2022-12-01T09:59:02.465Z,102030.75
2022-12-01T10:01:41.811Z,102026.28
2022-12-01T10:04:15.200Z,102032.00
2022-12-01T10:06:50.059Z,102029.44
2022-12-01T10:09:29.909Z,102033.22
2022-12-01T10:12:14.355Z,102024.84
2022-12-01T10:14:41.475Z,102025.88
2022-12-01T10:17:27.745Z,102022.50
2022-12-01T10:20:02.584Z,102030.19
2022-12-01T10:23:08.622Z,102024.84
2022-12-01T10:25:53.604Z,102020.66
2022-12-01T10:28:23.243Z,102018.09
2022-12-01T10:30:51.734Z,102008.88
2022-12-01T10:33:33.339Z,102013.53
2022-12-01T10:36:00.023Z,102004.59
2022-12-01T10:38:31.706Z,102007.56
2022-12-01T10:41:01.284Z,102004.19
2022-12-01T10:43:44.555Z,101999.66
2022-12-01T10:46:24.478Z,102001.00
2022-12-01T10:49:08.178Z,102003.47
2022-12-01T10:51:56.721Z,102000.09
2022-12-01T10:54:31.714Z,101998.63
2022-12-01T10:56:59.519Z,101992.78
2022-12-01T11:00:04.571Z,101998.22
2022-12-01T11:02:32.310Z,102003.75
2022-12-01T11:05:07.651Z,101985.69
2022-12-01T11:07:47.128Z,101995.31
2022-12-01T11:10:24.340Z,101985.91
2022-12-01T11:12:59.603Z,101994.72
2022-12-01T11:15:31.124Z,101979.97
2022-12-01T11:18:43.903Z,101983.44
2022-12-01T11:21:27.404Z,101974.50
2022-12-01T11:23:55.997Z,101979.91
2022-12-01T11:26:32.294Z,101986.81
2022-12-01T11:29:02.614Z,101977.06
2022-12-01T11:31:48.474Z,101978.91
2022-12-01T11:34:25.826Z,101969.44
2022-12-01T11:37:04.452Z,101976.00
2022-12-01T11:39:33.895Z,101960.22
2022-12-01T11:42:07.416Z,101964.00
2022-12-01T11:44:50.804Z,101970.06
2022-12-01T11:47:24.033Z,101959.97
2022-12-01T11:49:59.912Z,101962.94
2022-12-01T11:52:30.631Z,101960.34
2022-12-01T11:55:10.936Z,101962.47
2022-12-01T11:57:45.756Z,101952.44
2022-12-01T12:00:16.610Z,101950.66
2022-12-01T12:03:07.718Z,101953.28
2022-12-01T12:06:01.498Z,101956.56
2022-12-01T12:08:47.928Z,101953.47
2022-12-01T12:11:46.698Z,101949.25
2022-12-01T12:14:23.707Z,101954.19
2022-12-01T12:17:15.255Z,101947.19
2022-12-01T12:20:21.962Z,101945.25
2022-12-01T12:22:55.429Z,101949.63
2022-12-01T12:25:31.537Z,101948.50
2022-12-01T12:28:27.658Z,101951.75
2022-12-01T12:31:09.218Z,101942.34
2022-12-01T12:33:38.842Z,101938.75
2022-12-01T12:36:30.214Z,101947.03
2022-12-01T12:39:28.659Z,101952.41
2022-12-01T12:41:57.188Z,101949.47
2022-12-01T12:44:37.347Z,101945.03
2022-12-01T12:47:17.978Z,101943.41
2022-12-01T12:50:08.714Z,101952.03
2022-12-01T12:52:41.174Z,101948.78
2022-12-01T12:55:13.875Z,101935.56
2022-12-01T12:57:52.453Z,101938.13
2022-12-01T13:00:23.590Z,101932.41
2022-12-01T13:02:58.610Z,101933.06
2022-12-01T13:05:36.178Z,101931.41
2022-12-01T13:08:17.885Z,101920.31
2022-12-01T13:10:59.363Z,101924.22
2022-12-01T13:13:37.628Z,101920.31
2022-12-01T13:16:10.524Z,101922.75
2022-12-01T13:18:55.244Z,101926.06
2022-12-01T13:21:24.038Z,101922.97
2022-12-01T13:23:52.452Z,101920.19
2022-12-01T13:26:21.264Z,101932.41
2022-12-01T13:28:52.098Z,101927.19
2022-12-01T13:31:20.735Z,101922.75
2022-12-01T13:34:25.625Z,101929.13
2022-12-01T13:36:55.155Z,101925.03
2022-12-01T13:39:25.496Z,101934.16
2022-12-01T13:42:01.453Z,101928.63
2022-12-01T13:44:44.709Z,101933.34
2022-12-01T13:47:11.299Z,101923.44
2022-12-01T13:49:43.890Z,101923.22
2022-12-01T13:52:22.431Z,101919.13
2022-12-01T13:55:07.542Z,101923.84
2022-12-01T13:57:35.878Z,101910.34
2022-12-01T14:00:11.439Z,101910.00
2022-12-01T14:02:38.313Z,101906.41
2022-12-01T14:05:23.332Z,101911.34
2022-12-01T14:07:51.713Z,101904.97
2022-12-01T14:10:25.308Z,101899.13
2022-12-01T14:12:55.888Z,101903.53
2022-12-01T14:15:30.901Z,101905.38
2022-12-01T14:18:30.095Z,101902.59
2022-12-01T14:20:56.923Z,101903.09
2022-12-01T14:23:33.880Z,101904.22
2022-12-01T14:26:44.857Z,101904.84
2022-12-01T14:29:24.643Z,101901.09
2022-12-01T14:31:51.251Z,101901.72
2022-12-01T14:34:24.271Z,101888.50
2022-12-01T14:36:58.793Z,101896.31
2022-12-01T14:39:32.506Z,101894.16
2022-12-01T14:42:03.378Z,101895.94
2022-12-01T14:44:44.732Z,101892.97
2022-12-01T14:47:11.333Z,101883.66
2022-12-01T14:49:48.665Z,101890.97
2022-12-01T14:52:34.679Z,101878.09
2022-12-01T14:55:34.276Z,101886.97
2022-12-01T14:58:07.634Z,101881.25
2022-12-01T15:00:48.595Z,101884.97
2022-12-01T15:03:15.320Z,101888.34
2022-12-01T15:05:43.607Z,101884.25
2022-12-01T15:08:43.528Z,101878.53
2022-12-01T15:11:25.809Z,101883.06
2022-12-01T15:13:56.703Z,101891.97
2022-12-01T15:16:30.462Z,101889.84
2022-12-01T15:18:57.340Z,101889.63
2022-12-01T15:21:27.215Z,101892.72
2022-12-01T15:24:19.577Z,101898.06
2022-12-01T15:26:49.222Z,101891.19
2022-12-01T15:29:21.082Z,101897.34
2022-12-01T15:31:51.130Z,101882.53
2022-12-01T15:34:23.350Z,101885.06
2022-12-01T15:36:52.386Z,101887.66
2022-12-01T15:39:30.829Z,101892.16
2022-12-01T15:41:58.888Z,101889.22
2022-12-01T15:44:36.722Z,101876.63
2022-12-01T15:47:38.641Z,101883.41
2022-12-01T15:50:06.576Z,101880.75
2022-12-01T15:52:42.813Z,101885.56
2022-12-01T15:55:38.618Z,101887.09
2022-12-01T15:58:09.993Z,101890.25
2022-12-01T16:00:36.863Z,101892.34
2022-12-01T16:03:03.737Z,101886.09
2022-12-01T16:05:32.763Z,101887.81
2022-12-01T16:08:15.899Z,101892.94
2022-12-01T16:10:42.618Z,101889.13
2022-12-01T16:13:42.361Z,101892.59
2022-12-01T16:16:39.431Z,101887.78
2022-12-01T16:19:09.110Z,101893.50
2022-12-01T16:21:47.418Z,101889.50
2022-12-01T16:24:31.028Z,101893.78
2022-12-01T16:27:00.210Z,101906.63
2022-12-01T16:29:28.926Z,101902.34
2022-12-01T16:32:20.349Z,101900.75
2022-12-01T16:34:46.622Z,101903.50
2022-12-01T16:37:15.125Z,101901.06
2022-12-01T16:39:42.142Z,101903.00
2022-12-01T16:42:14.743Z,101906.94
2022-12-01T16:44:42.758Z,101904.78
2022-12-01T16:47:20.357Z,101905.38
2022-12-01T16:49:47.643Z,101901.59
2022-12-01T16:55:01.464Z,101897.38
2022-12-01T16:57:28.118Z,101899.09
2022-12-01T16:59:54.715Z,101897.44
2022-12-01T17:02:21.417Z,101906.81
2022-12-01T17:04:48.332Z,101909.91
2022-12-01T17:07:15.111Z,101899.97
2022-12-01T17:09:41.757Z,101894.78
2022-12-01T17:12:08.464Z,101902.53
2022-12-01T17:14:35.957Z,101899.53
2022-12-01T17:17:02.626Z,101905.34
2022-12-01T17:19:29.231Z,101900.66
2022-12-01T17:21:57.020Z,101899.63
2022-12-01T17:24:23.881Z,101899.38
2022-12-01T17:26:50.454Z,101905.50
2022-12-01T17:29:17.068Z,101909.38
2022-12-01T17:31:43.753Z,101916.22
2022-12-01T17:34:10.390Z,101909.59
2022-12-01T17:36:37.015Z,101916.97
2022-12-01T17:39:03.737Z,101924.34
2022-12-01T17:41:35.746Z,101918.53
2022-12-01T17:44:05.873Z,101919.06
2022-12-01T17:46:32.598Z,101916.81
2022-12-01T17:48:59.651Z,101918.69
2022-12-01T17:51:27.335Z,101923.09
2022-12-01T17:53:54.323Z,101919.00
2022-12-01T17:56:20.933Z,101931.13
2022-12-01T17:58:50.480Z,101915.19
2022-12-01T18:01:21.357Z,101919.06
2022-12-01T18:03:50.142Z,101921.28
2022-12-01T18:06:18.499Z,101919.66
2022-12-01T18:08:45.839Z,101915.25
2022-12-01T18:11:15.194Z,101923.53
2022-12-01T18:13:45.350Z,101906.41
2022-12-01T18:16:16.184Z,101904.75
2022-12-01T18:18:43.288Z,101900.88
2022-12-01T18:21:19.132Z,101906.41
2022-12-01T18:23:52.081Z,101908.63
2022-12-01T18:26:23.086Z,101903.94
2022-12-01T18:29:01.402Z,101901.47
2022-12-01T18:31:29.515Z,101905.56
2022-12-01T18:34:02.618Z,101896.19
2022-12-01T18:36:31.302Z,101899.47
2022-12-01T18:38:59.594Z,101897.53
2022-12-01T18:41:26.565Z,101894.47
2022-12-01T18:43:53.832Z,101899.69
2022-12-01T18:46:21.643Z,101907.66
2022-12-01T18:48:51.125Z,101900.50
2022-12-01T18:51:18.634Z,101901.31
2022-12-01T18:53:45.663Z,101906.53
2022-12-01T18:56:15.259Z,101900.72
2022-12-01T18:58:42.603Z,101906.22
2022-12-01T19:01:21.147Z,101905.94
2022-12-01T19:03:50.598Z,101909.50
2022-12-01T19:06:19.454Z,101911.16
2022-12-01T19:08:46.222Z,101912.81
2022-12-01T19:11:13.295Z,101909.72
2022-12-01T19:13:41.582Z,101907.28
2022-12-01T19:16:14.467Z,101912.50
2022-12-01T19:18:42.565Z,101899.53
2022-12-01T19:21:13.621Z,101894.00
2022-12-01T19:23:40.524Z,101896.78
2022-12-01T19:26:11.136Z,101906.66
2022-12-01T19:28:38.217Z,101893.41
2022-12-01T19:31:11.219Z,101895.03
2022-12-01T19:33:39.949Z,101898.34
2022-12-01T19:36:09.988Z,101897.19
2022-12-01T19:38:36.903Z,101898.53
2022-12-01T19:41:05.751Z,101901.00
2022-12-01T19:43:36.301Z,101898.75
2022-12-01T19:46:11.250Z,101891.00
2022-12-01T19:48:38.196Z,101897.03
2022-12-01T19:51:05.695Z,101887.66
2022-12-01T19:53:34.018Z,101881.03
2022-12-01T19:56:05.249Z,101881.53
2022-12-01T19:58:35.340Z,101886.72
2022-12-01T20:01:09.130Z,101883.69
2022-12-01T20:03:36.632Z,101884.50
2022-12-01T20:06:05.294Z,101891.97
2022-12-01T20:08:35.650Z,101884.50
2022-12-01T20:11:06.413Z,101886.13
2022-12-01T20:13:39.351Z,101875.09
2022-12-01T20:16:12.740Z,101891.38
2022-12-01T20:18:40.615Z,101881.97
2022-12-01T20:21:09.467Z,101886.38
2022-12-01T20:23:37.535Z,101879.72
2022-12-01T20:26:07.207Z,101887.22
2022-12-01T20:28:36.169Z,101875.34
2022-12-01T20:31:03.801Z,101876.97
2022-12-01T20:33:31.465Z,101878.13
2022-12-01T20:35:58.455Z,101875.34
2022-12-01T20:38:27.696Z,101890.47
2022-12-01T20:40:55.331Z,101887.41
2022-12-01T20:43:23.994Z,101884.66
2022-12-01T20:45:52.133Z,101881.88
2022-12-01T20:48:18.887Z,101877.19
2022-12-01T20:50:45.994Z,101887.41
2022-12-01T20:53:12.887Z,101887.41
2022-12-01T20:55:40.377Z,101885.47
2022-12-01T20:58:11.515Z,101883.53
2022-12-01T21:00:40.488Z,101896.22
2022-12-01T21:03:07.796Z,101895.09
2022-12-01T21:05:34.569Z,101893.16
2022-12-01T21:08:02.155Z,101901.13
2022-12-01T21:10:28.935Z,101895.59
2022-12-01T21:13:20.050Z,101886.22
2022-12-01T21:16:00.050Z,101882.34
2022-12-01T21:18:43.977Z,101887.84
2022-12-01T21:21:23.040Z,101891.72
2022-12-01T21:24:02.582Z,101887.03
2022-12-01T21:26:29.233Z,101893.97
2022-12-01T21:28:59.668Z,101887.13
2022-12-01T21:31:26.559Z,101883.03
2022-12-01T21:33:54.046Z,101867.06
2022-12-01T21:36:22.632Z,101877.56
2022-12-01T21:38:58.984Z,101872.66
2022-12-01T21:41:30.204Z,101867.72
2022-12-01T21:44:02.644Z,101872.75
2022-12-01T21:46:29.950Z,101871.19
2022-12-01T21:48:56.788Z,101868.19
2022-12-01T21:51:25.076Z,101868.00
2022-12-01T21:53:55.712Z,101864.19
2022-12-01T21:56:25.955Z,101866.13
2022-12-01T21:58:55.316Z,101868.38
2022-12-01T22:01:32.513Z,101864.59
2022-12-01T22:04:02.299Z,101870.09
2022-12-01T22:06:41.156Z,101865.69
2022-12-01T22:09:24.871Z,101865.38
2022-12-01T22:11:57.295Z,101873.38
2022-12-01T22:14:29.635Z,101872.56
2022-12-01T22:16:56.354Z,101876.41
2022-12-01T22:19:29.907Z,101874.78
2022-12-01T22:22:21.169Z,101873.66
2022-12-01T22:24:59.160Z,101878.06
2022-12-01T22:27:30.127Z,101878.88
2022-12-01T22:30:07.331Z,101878.06
2022-12-01T22:32:57.231Z,101876.97
2022-12-01T22:35:49.947Z,101881.94
2022-12-01T22:38:40.452Z,101879.16
2022-12-01T22:41:13.907Z,101878.06
2022-12-01T22:43:57.355Z,101876.13
2022-12-01T22:46:44.514Z,101876.13
2022-12-01T22:49:11.165Z,101879.16
2022-12-01T22:51:48.874Z,101884.16
2022-12-01T22:54:15.461Z,101884.16
2022-12-01T22:56:45.399Z,101874.28
2022-12-01T22:59:23.225Z,101876.22
2022-12-01T23:01:56.087Z,101878.16
2022-12-01T23:04:28.387Z,101872.13
2022-12-01T23:07:00.027Z,101875.16
2022-12-01T23:09:32.686Z,101876.56
2022-12-01T23:12:12.412Z,101872.47
2022-12-01T23:14:43.642Z,101868.38
2022-12-01T23:17:18.903Z,101865.13
2022-12-01T23:19:45.984Z,101866.22
2022-12-01T23:22:14.680Z,101870.72
2022-12-01T23:24:41.451Z,101864.69
2022-12-01T23:27:08.208Z,101874.66
2022-12-01T23:29:34.923Z,101865.34
2022-12-01T23:32:01.705Z,101874.22
2022-12-01T23:34:29.013Z,101867.44
2022-12-01T23:36:56.295Z,101879.06
2022-12-01T23:39:31.994Z,101871.13
2022-12-01T23:41:59.908Z,101862.38
2022-12-01T23:44:45.346Z,101873.38
2022-12-01T23:47:30.585Z,101877.78
2022-12-01T23:50:03.651Z,101871.06
2022-12-01T23:52:36.399Z,101879.88
2022-12-01T23:55:14.560Z,101875.41
2022-12-01T23:57:41.219Z,101863.78
